sensor_id;sensor_type;location;lat;lon;timestamp;P1;durP1;ratioP1;P2;durP2;ratioP2
57893;SDS011;43710;47.460;19.034;2023-10-13T04:04:22;26.70;;;16.37;;
57893;SDS011;43710;47.460;19.034;2023-10-13T04:07:37;22.15;;;15.63;;
57893;SDS011;43710;47.460;19.034;2023-10-13T04:11:02;26.83;;;16.10;;
57893;SDS011;43710;47.460;19.034;2023-10-13T04:14:23;24.20;;;15.82;;
57893;SDS011;43710;47.460;19.034;2023-10-13T04:17:45;22.75;;;16.50;;
57893;SDS011;43710;47.460;19.034;2023-10-13T04:20:52;24.27;;;15.77;;
57893;SDS011;43710;47.460;19.034;2023-10-13T04:24:06;21.33;;;14.70;;
57893;SDS011;43710;47.460;19.034;2023-10-13T04:27:28;21.27;;;15.23;;
57893;SDS011;43710;47.460;19.034;2023-10-13T04:30:55;23.90;;;15.95;;
57893;SDS011;43710;47.460;19.034;2023-10-13T04:33:58;26.55;;;15.20;;
57893;SDS011;43710;47.460;19.034;2023-10-13T04:37:04;20.12;;;15.65;;
57893;SDS011;43710;47.460;19.034;2023-10-13T04:40:40;32.50;;;17.33;;
57893;SDS011;43710;47.460;19.034;2023-10-13T04:43:58;25.75;;;16.90;;
57893;SDS011;43710;47.460;19.034;2023-10-13T04:47:07;25.70;;;16.10;;
57893;SDS011;43710;47.460;19.034;2023-10-13T04:50:10;21.67;;;15.55;;
57893;SDS011;43710;47.460;19.034;2023-10-13T04:53:24;26.00;;;16.25;;
57893;SDS011;43710;47.460;19.034;2023-10-13T04:56:32;25.02;;;17.02;;
57893;SDS011;43710;47.460;19.034;2023-10-13T04:59:43;24.87;;;17.00;;
57893;SDS011;43710;47.460;19.034;2023-10-13T05:03:05;21.90;;;17.20;;
57893;SDS011;43710;47.460;19.034;2023-10-13T05:06:28;20.65;;;16.95;;
57893;SDS011;43710;47.460;19.034;2023-10-13T05:09:46;22.58;;;16.67;;
57893;SDS011;43710;47.460;19.034;2023-10-13T05:13:07;23.60;;;17.35;;
57893;SDS011;43710;47.460;19.034;2023-10-13T05:16:28;28.65;;;17.30;;
57893;SDS011;43710;47.460;19.034;2023-10-13T05:19:49;28.45;;;17.08;;
57893;SDS011;43710;47.460;19.034;2023-10-13T05:23:09;28.55;;;17.87;;
57893;SDS011;43710;47.460;19.034;2023-10-13T05:26:30;23.45;;;17.05;;
57893;SDS011;43710;47.460;19.034;2023-10-13T05:29:51;26.17;;;18.73;;
57893;SDS011;43710;47.460;19.034;2023-10-13T05:33:12;24.77;;;18.08;;
57893;SDS011;43710;47.460;19.034;2023-10-13T05:36:33;28.15;;;17.83;;
57893;SDS011;43710;47.460;19.034;2023-10-13T05:39:54;28.17;;;17.90;;
57893;SDS011;43710;47.460;19.034;2023-10-13T05:43:15;24.45;;;17.20;;
57893;SDS011;43710;47.460;19.034;2023-10-13T05:46:36;25.27;;;17.60;;
57893;SDS011;43710;47.460;19.034;2023-10-13T05:49:43;28.95;;;17.48;;
57893;SDS011;43710;47.460;19.034;2023-10-13T05:53:04;28.12;;;16.90;;
57893;SDS011;43710;47.460;19.034;2023-10-13T05:56:12;25.67;;;17.00;;
57893;SDS011;43710;47.460;19.034;2023-10-13T05:59:34;22.25;;;16.02;;
57893;SDS011;43710;47.460;19.034;2023-10-13T06:02:56;23.83;;;14.48;;
57893;SDS011;43710;47.460;19.034;2023-10-13T06:06:17;26.33;;;14.75;;
57893;SDS011;43710;47.460;19.034;2023-10-13T06:09:37;27.58;;;13.88;;
57893;SDS011;43710;47.460;19.034;2023-10-13T06:12:58;19.83;;;13.52;;
57893;SDS011;43710;47.460;19.034;2023-10-13T06:16:19;26.77;;;14.38;;
57893;SDS011;43710;47.460;19.034;2023-10-13T06:19:41;29.05;;;16.45;;
57893;SDS011;43710;47.460;19.034;2023-10-13T06:23:02;25.15;;;15.35;;
57893;SDS011;43710;47.460;19.034;2023-10-13T06:26:24;21.92;;;14.70;;
57893;SDS011;43710;47.460;19.034;2023-10-13T06:29:45;26.70;;;15.43;;
57893;SDS011;43710;47.460;19.034;2023-10-13T06:32:48;24.05;;;15.07;;
57893;SDS011;43710;47.460;19.034;2023-10-13T06:35:52;23.92;;;15.90;;
57893;SDS011;43710;47.460;19.034;2023-10-13T06:38:58;28.50;;;15.98;;
57893;SDS011;43710;47.460;19.034;2023-10-13T06:42:27;22.52;;;14.70;;
57893;SDS011;43710;47.460;19.034;2023-10-13T06:45:30;28.95;;;15.18;;
57893;SDS011;43710;47.460;19.034;2023-10-13T06:48:37;27.05;;;14.43;;
57893;SDS011;43710;47.460;19.034;2023-10-13T06:51:42;21.17;;;14.27;;
57893;SDS011;43710;47.460;19.034;2023-10-13T06:54:45;22.73;;;14.82;;
57893;SDS011;43710;47.460;19.034;2023-10-13T06:57:48;21.75;;;14.30;;
57893;SDS011;43710;47.460;19.034;2023-10-13T07:00:51;26.00;;;14.65;;
57893;SDS011;43710;47.460;19.034;2023-10-13T07:04:00;20.25;;;14.02;;
57893;SDS011;43710;47.460;19.034;2023-10-13T07:07:05;22.08;;;14.38;;
57893;SDS011;43710;47.460;19.034;2023-10-13T07:10:12;27.73;;;15.13;;
57893;SDS011;43710;47.460;19.034;2023-10-13T07:13:15;20.55;;;14.25;;
57893;SDS011;43710;47.460;19.034;2023-10-13T07:16:19;21.30;;;13.77;;
57893;SDS011;43710;47.460;19.034;2023-10-13T07:19:31;27.90;;;14.07;;
57893;SDS011;43710;47.460;19.034;2023-10-13T07:22:38;24.80;;;13.98;;
57893;SDS011;43710;47.460;19.034;2023-10-13T07:25:42;21.30;;;14.35;;
57893;SDS011;43710;47.460;19.034;2023-10-13T07:28:53;22.42;;;13.98;;
57893;SDS011;43710;47.460;19.034;2023-10-13T07:31:55;19.33;;;14.55;;
57893;SDS011;43710;47.460;19.034;2023-10-13T07:34:58;19.80;;;13.30;;
57893;SDS011;43710;47.460;19.034;2023-10-13T07:38:10;24.27;;;13.55;;
57893;SDS011;43710;47.460;19.034;2023-10-13T07:41:12;25.70;;;13.20;;
57893;SDS011;43710;47.460;19.034;2023-10-13T07:44:18;20.53;;;13.67;;
57893;SDS011;43710;47.460;19.034;2023-10-13T07:47:22;23.30;;;14.05;;
57893;SDS011;43710;47.460;19.034;2023-10-13T07:50:26;19.45;;;14.10;;
57893;SDS011;43710;47.460;19.034;2023-10-13T07:53:29;24.80;;;14.07;;
57893;SDS011;43710;47.460;19.034;2023-10-13T07:56:42;26.35;;;15.18;;
57893;SDS011;43710;47.460;19.034;2023-10-13T07:59:44;26.67;;;14.70;;
57893;SDS011;43710;47.460;19.034;2023-10-13T08:02:58;27.15;;;14.48;;
57893;SDS011;43710;47.460;19.034;2023-10-13T08:06:22;30.12;;;18.33;;
57893;SDS011;43710;47.460;19.034;2023-10-13T08:09:30;32.58;;;19.25;;
57893;SDS011;43710;47.460;19.034;2023-10-13T08:12:33;42.40;;;20.75;;
57893;SDS011;43710;47.460;19.034;2023-10-13T08:15:42;33.30;;;21.45;;
57893;SDS011;43710;47.460;19.034;2023-10-13T08:18:51;41.20;;;24.33;;
57893;SDS011;43710;47.460;19.034;2023-10-13T08:21:55;33.63;;;22.17;;
57893;SDS011;43710;47.460;19.034;2023-10-13T08:25:02;33.58;;;22.17;;
57893;SDS011;43710;47.460;19.034;2023-10-13T08:28:26;50.58;;;25.30;;
57893;SDS011;43710;47.460;19.034;2023-10-13T08:31:58;37.17;;;25.10;;
57893;SDS011;43710;47.460;19.034;2023-10-13T08:35:06;40.70;;;25.55;;
57893;SDS011;43710;47.460;19.034;2023-10-13T08:38:09;38.00;;;23.27;;
57893;SDS011;43710;47.460;19.034;2023-10-13T08:41:32;38.97;;;24.50;;
57893;SDS011;43710;47.460;19.034;2023-10-13T08:44:43;38.25;;;23.27;;
57893;SDS011;43710;47.460;19.034;2023-10-13T08:47:55;41.00;;;23.05;;
57893;SDS011;43710;47.460;19.034;2023-10-13T08:51:14;35.15;;;23.65;;
57893;SDS011;43710;47.460;19.034;2023-10-13T08:54:35;36.45;;;23.90;;
57893;SDS011;43710;47.460;19.034;2023-10-13T08:57:47;36.50;;;22.37;;
57893;SDS011;43710;47.460;19.034;2023-10-13T09:00:52;39.75;;;21.52;;
57893;SDS011;43710;47.460;19.034;2023-10-13T09:04:01;41.75;;;23.00;;
57893;SDS011;43710;47.460;19.034;2023-10-13T09:07:24;36.10;;;22.35;;
57893;SDS011;43710;47.460;19.034;2023-10-13T09:10:29;40.40;;;22.30;;
57893;SDS011;43710;47.460;19.034;2023-10-13T09:13:35;33.75;;;22.50;;
57893;SDS011;43710;47.460;19.034;2023-10-13T09:16:46;37.92;;;23.25;;
57893;SDS011;43710;47.460;19.034;2023-10-13T09:19:49;33.25;;;21.85;;
57893;SDS011;43710;47.460;19.034;2023-10-13T09:22:59;35.88;;;22.17;;
57893;SDS011;43710;47.460;19.034;2023-10-13T09:26:14;34.70;;;21.97;;
57893;SDS011;43710;47.460;19.034;2023-10-13T09:29:19;30.98;;;20.95;;
57893;SDS011;43710;47.460;19.034;2023-10-13T09:32:22;30.02;;;20.58;;
57893;SDS011;43710;47.460;19.034;2023-10-13T09:35:25;32.90;;;22.60;;
57893;SDS011;43710;47.460;19.034;2023-10-13T09:38:32;32.65;;;20.60;;
57893;SDS011;43710;47.460;19.034;2023-10-13T09:41:41;31.75;;;21.12;;
57893;SDS011;43710;47.460;19.034;2023-10-13T09:44:43;32.40;;;21.92;;
57893;SDS011;43710;47.460;19.034;2023-10-13T09:47:55;36.80;;;22.30;;
57893;SDS011;43710;47.460;19.034;2023-10-13T09:51:11;32.58;;;20.62;;
57893;SDS011;43710;47.460;19.034;2023-10-13T09:57:37;30.70;;;21.65;;
57893;SDS011;43710;47.460;19.034;2023-10-13T10:00:54;34.75;;;21.83;;
57893;SDS011;43710;47.460;19.034;2023-10-13T10:04:22;34.75;;;23.58;;
57893;SDS011;43710;47.460;19.034;2023-10-13T10:07:26;33.65;;;22.10;;
57893;SDS011;43710;47.460;19.034;2023-10-13T10:10:47;38.72;;;24.77;;
57893;SDS011;43710;47.460;19.034;2023-10-13T10:17:12;34.80;;;22.58;;
57893;SDS011;43710;47.460;19.034;2023-10-13T10:20:16;34.13;;;23.25;;
57893;SDS011;43710;47.460;19.034;2023-10-13T10:23:34;30.77;;;22.23;;
57893;SDS011;43710;47.460;19.034;2023-10-13T10:26:50;31.37;;;20.95;;
57893;SDS011;43710;47.460;19.034;2023-10-13T10:29:57;31.75;;;21.87;;
57893;SDS011;43710;47.460;19.034;2023-10-13T10:33:00;32.30;;;20.17;;
57893;SDS011;43710;47.460;19.034;2023-10-13T10:36:09;33.47;;;20.23;;
57893;SDS011;43710;47.460;19.034;2023-10-13T10:39:16;36.75;;;20.23;;
57893;SDS011;43710;47.460;19.034;2023-10-13T10:42:22;34.97;;;20.75;;
57893;SDS011;43710;47.460;19.034;2023-10-13T10:48:34;30.30;;;20.50;;
57893;SDS011;43710;47.460;19.034;2023-10-13T10:51:40;34.05;;;19.55;;
57893;SDS011;43710;47.460;19.034;2023-10-13T10:54:48;29.67;;;20.05;;
57893;SDS011;43710;47.460;19.034;2023-10-13T10:58:00;29.05;;;19.85;;
57893;SDS011;43710;47.460;19.034;2023-10-13T11:01:28;31.27;;;20.15;;
57893;SDS011;43710;47.460;19.034;2023-10-13T11:04:40;31.15;;;20.85;;
57893;SDS011;43710;47.460;19.034;2023-10-13T11:07:53;32.90;;;21.12;;
57893;SDS011;43710;47.460;19.034;2023-10-13T11:10:55;37.08;;;20.80;;
57893;SDS011;43710;47.460;19.034;2023-10-13T11:13:57;31.17;;;19.70;;
57893;SDS011;43710;47.460;19.034;2023-10-13T11:17:19;29.87;;;18.40;;
57893;SDS011;43710;47.460;19.034;2023-10-13T11:20:26;34.80;;;20.00;;
57893;SDS011;43710;47.460;19.034;2023-10-13T11:23:54;27.77;;;19.33;;
57893;SDS011;43710;47.460;19.034;2023-10-13T11:26:58;44.60;;;20.45;;
57893;SDS011;43710;47.460;19.034;2023-10-13T11:30:04;29.87;;;20.02;;
57893;SDS011;43710;47.460;19.034;2023-10-13T11:33:17;32.00;;;20.08;;
57893;SDS011;43710;47.460;19.034;2023-10-13T11:36:20;29.45;;;18.05;;
57893;SDS011;43710;47.460;19.034;2023-10-13T11:39:31;32.20;;;17.90;;
57893;SDS011;43710;47.460;19.034;2023-10-13T11:42:43;26.85;;;17.70;;
57893;SDS011;43710;47.460;19.034;2023-10-13T11:45:49;30.40;;;16.20;;
57893;SDS011;43710;47.460;19.034;2023-10-13T11:49:19;28.73;;;15.82;;
57893;SDS011;43710;47.460;19.034;2023-10-13T11:52:33;29.77;;;16.33;;
57893;SDS011;43710;47.460;19.034;2023-10-13T11:55:35;26.17;;;15.80;;
57893;SDS011;43710;47.460;19.034;2023-10-13T11:58:40;25.37;;;16.40;;
57893;SDS011;43710;47.460;19.034;2023-10-13T12:01:43;24.95;;;15.90;;
57893;SDS011;43710;47.460;19.034;2023-10-13T12:05:08;23.00;;;15.30;;
57893;SDS011;43710;47.460;19.034;2023-10-13T12:08:14;21.50;;;15.15;;
57893;SDS011;43710;47.460;19.034;2023-10-13T12:11:24;23.50;;;14.77;;
57893;SDS011;43710;47.460;19.034;2023-10-13T12:14:40;24.87;;;13.75;;
57893;SDS011;43710;47.460;19.034;2023-10-13T12:17:54;25.83;;;13.93;;
57893;SDS011;43710;47.460;19.034;2023-10-13T12:24:10;19.45;;;13.02;;
57893;SDS011;43710;47.460;19.034;2023-10-13T12:27:41;20.58;;;13.85;;
57893;SDS011;43710;47.460;19.034;2023-10-13T12:30:53;21.62;;;13.20;;
57893;SDS011;43710;47.460;19.034;2023-10-13T12:33:56;24.35;;;13.82;;
57893;SDS011;43710;47.460;19.034;2023-10-13T12:37:08;24.30;;;13.23;;
57893;SDS011;43710;47.460;19.034;2023-10-13T12:40:30;23.90;;;12.75;;
57893;SDS011;43710;47.460;19.034;2023-10-13T12:43:51;22.48;;;12.63;;
57893;SDS011;43710;47.460;19.034;2023-10-13T12:47:12;25.42;;;12.75;;
57893;SDS011;43710;47.460;19.034;2023-10-13T12:50:34;27.40;;;12.43;;
57893;SDS011;43710;47.460;19.034;2023-10-13T12:56:54;19.73;;;12.60;;
57893;SDS011;43710;47.460;19.034;2023-10-13T12:59:59;18.25;;;10.95;;
57893;SDS011;43710;47.460;19.034;2023-10-13T13:03:02;18.37;;;10.43;;
57893;SDS011;43710;47.460;19.034;2023-10-13T13:06:20;24.83;;;11.02;;
57893;SDS011;43710;47.460;19.034;2023-10-13T13:09:31;20.95;;;9.73;;
57893;SDS011;43710;47.460;19.034;2023-10-13T13:12:34;23.10;;;9.52;;
57893;SDS011;43710;47.460;19.034;2023-10-13T13:15:36;16.95;;;8.38;;
57893;SDS011;43710;47.460;19.034;2023-10-13T13:18:39;18.33;;;8.88;;
57893;SDS011;43710;47.460;19.034;2023-10-13T13:21:42;20.05;;;8.32;;
57893;SDS011;43710;47.460;19.034;2023-10-13T13:24:44;18.55;;;8.93;;
57893;SDS011;43710;47.460;19.034;2023-10-13T13:27:47;20.48;;;9.10;;
57893;SDS011;43710;47.460;19.034;2023-10-13T13:30:50;22.08;;;8.45;;
57893;SDS011;43710;47.460;19.034;2023-10-13T13:33:56;18.65;;;8.10;;
57893;SDS011;43710;47.460;19.034;2023-10-13T13:36:59;17.42;;;8.30;;
57893;SDS011;43710;47.460;19.034;2023-10-13T13:40:03;18.42;;;7.72;;
57893;SDS011;43710;47.460;19.034;2023-10-13T13:43:16;15.55;;;7.00;;
57893;SDS011;43710;47.460;19.034;2023-10-13T13:46:34;18.00;;;7.20;;
57893;SDS011;43710;47.460;19.034;2023-10-13T13:49:43;17.50;;;6.70;;
57893;SDS011;43710;47.460;19.034;2023-10-13T13:52:54;16.87;;;6.53;;
57893;SDS011;43710;47.460;19.034;2023-10-13T13:56:03;16.37;;;6.90;;
57893;SDS011;43710;47.460;19.034;2023-10-13T13:59:06;15.63;;;6.70;;
57893;SDS011;43710;47.460;19.034;2023-10-13T14:02:11;17.23;;;6.93;;
57893;SDS011;43710;47.460;19.034;2023-10-13T14:05:23;18.92;;;6.65;;
57893;SDS011;43710;47.460;19.034;2023-10-13T14:08:25;15.02;;;6.25;;
57893;SDS011;43710;47.460;19.034;2023-10-13T14:11:30;23.80;;;7.80;;
57893;SDS011;43710;47.460;19.034;2023-10-13T14:14:39;17.20;;;6.70;;
57893;SDS011;43710;47.460;19.034;2023-10-13T14:17:49;18.33;;;6.68;;
57893;SDS011;43710;47.460;19.034;2023-10-13T14:20:51;19.87;;;7.30;;
57893;SDS011;43710;47.460;19.034;2023-10-13T14:23:54;15.18;;;6.68;;
57893;SDS011;43710;47.460;19.034;2023-10-13T14:26:56;18.62;;;6.18;;
57893;SDS011;43710;47.460;19.034;2023-10-13T14:30:20;15.73;;;6.20;;
57893;SDS011;43710;47.460;19.034;2023-10-13T14:33:23;22.33;;;6.60;;
57893;SDS011;43710;47.460;19.034;2023-10-13T14:36:28;14.10;;;6.05;;
57893;SDS011;43710;47.460;19.034;2023-10-13T14:39:36;16.83;;;6.25;;
57893;SDS011;43710;47.460;19.034;2023-10-13T14:42:39;14.02;;;6.07;;
57893;SDS011;43710;47.460;19.034;2023-10-13T14:45:42;13.80;;;5.55;;
57893;SDS011;43710;47.460;19.034;2023-10-13T14:48:45;19.70;;;6.28;;
57893;SDS011;43710;47.460;19.034;2023-10-13T14:54:52;13.25;;;5.75;;
57893;SDS011;43710;47.460;19.034;2023-10-13T14:57:58;12.20;;;5.70;;
57893;SDS011;43710;47.460;19.034;2023-10-13T15:01:00;16.45;;;7.03;;
57893;SDS011;43710;47.460;19.034;2023-10-13T15:04:02;18.73;;;7.37;;
57893;SDS011;43710;47.460;19.034;2023-10-13T15:07:07;16.02;;;6.03;;
57893;SDS011;43710;47.460;19.034;2023-10-13T15:10:09;12.52;;;6.10;;
57893;SDS011;43710;47.460;19.034;2023-10-13T15:13:16;19.52;;;7.07;;
57893;SDS011;43710;47.460;19.034;2023-10-13T15:16:21;15.50;;;7.25;;
57893;SDS011;43710;47.460;19.034;2023-10-13T15:19:25;14.80;;;6.45;;
57893;SDS011;43710;47.460;19.034;2023-10-13T15:22:27;20.95;;;7.47;;
57893;SDS011;43710;47.460;19.034;2023-10-13T15:25:30;25.05;;;6.95;;
57893;SDS011;43710;47.460;19.034;2023-10-13T15:28:41;15.13;;;6.80;;
57893;SDS011;43710;47.460;19.034;2023-10-13T15:31:55;22.58;;;7.62;;
57893;SDS011;43710;47.460;19.034;2023-10-13T15:35:01;11.70;;;6.37;;
57893;SDS011;43710;47.460;19.034;2023-10-13T15:38:03;17.83;;;7.12;;
57893;SDS011;43710;47.460;19.034;2023-10-13T15:41:06;16.02;;;7.10;;
57893;SDS011;43710;47.460;19.034;2023-10-13T15:44:11;18.52;;;6.35;;
57893;SDS011;43710;47.460;19.034;2023-10-13T15:47:15;13.70;;;6.30;;
